Time;durP1;ratioP1;P1;durP2;ratioP2;P2;SDS_P1;SDS_P2;PMS_P1;PMS_P2;Temp;Humidity;BMP_temperature;BMP_pressure;BME280_temperature;BME280_humidity;BME280_pressure;Samples;Min_cycle;Max_cycle;Signal;HPM_P1;HPM_P2
2023/08/30 00:01:26;;;;;;;;;;;19.00;97.70;;;;;;5112262;28;19907;-66
2023/08/30 00:03:52;;;;;;;;;;;19.10;97.50;;;;;;5094483;28;19920;-69
2023/08/30 00:06:19;;;;;;;;;;;19.30;97.40;;;;;;5093162;28;19924;-68
2023/08/30 00:08:46;;;;;;;;;;;19.40;97.10;;;;;;5095108;28;19911;-69
2023/08/30 00:11:12;;;;;;;;;;;19.50;96.90;;;;;;5112114;28;19908;-68
2023/08/30 00:13:40;;;;;;;;;;;19.60;96.80;;;;;;5095201;28;19962;-69
2023/08/30 00:16:07;;;;;;;;;;;19.70;96.30;;;;;;5107410;28;20307;-70
2023/08/30 00:18:33;;;;;;;;;;;19.80;95.80;;;;;;5111342;28;19912;-69
2023/08/30 00:21:00;;;;;;;;;;;20.00;95.80;;;;;;5104861;28;20357;-71
2023/08/30 00:23:27;;;;;;;;;;;20.10;95.40;;;;;;5093880;28;19920;-69
2023/08/30 00:25:53;;;;;;;;;;;20.20;95.20;;;;;;5092700;28;20008;-70
2023/08/30 00:28:20;;;;;;;;;;;20.30;95.10;;;;;;5103217;28;19938;-68
2023/08/30 00:30:47;;;;;;;;;;;20.50;95.10;;;;;;5099639;28;19950;-68
2023/08/30 00:33:13;;;;;;;;;;;20.50;95.00;;;;;;5098796;28;19912;-67
2023/08/30 00:35:40;;;;;;;;;;;20.60;94.80;;;;;;5107409;28;19918;-68
2023/08/30 00:38:07;;;;;;;;;;;20.80;94.40;;;;;;5111488;28;19911;-66
2023/08/30 00:40:40;;;;;;;;;;;20.90;94.00;;;;;;5111842;28;19915;-66
2023/08/30 00:43:08;;;;;;;;;;;21.00;93.60;;;;;;5111672;28;19915;-68
2023/08/30 00:45:37;;;;;;;;;;;21.20;93.40;;;;;;5111697;28;19941;-67
2023/08/30 00:48:04;;;;;;;;;;;21.30;93.40;;;;;;5112855;28;20002;-67
2023/08/30 00:50:31;;;;;;;;;;;21.50;93.10;;;;;;5112998;28;20011;-67
2023/08/30 00:52:57;;;;;;;;;;;21.60;92.30;;;;;;5112973;28;19914;-66
2023/08/30 00:55:24;;;;;;;;;;;21.70;91.80;;;;;;5112669;28;19923;-68
2023/08/30 00:57:51;;;;;;;;;;;21.90;91.60;;;;;;5112872;28;19931;-68
2023/08/30 01:00:17;;;;;;;;;;;22.00;91.30;;;;;;5113020;28;20378;-70
2023/08/30 01:02:45;;;;;;;;;;;22.20;90.70;;;;;;5112724;28;19919;-67
2023/08/30 01:05:11;;;;;;;;;;;22.30;90.60;;;;;;5112707;28;19912;-69
2023/08/30 01:07:38;;;;;;;;;;;22.50;90.10;;;;;;5112668;28;19908;-68
2023/08/30 01:10:04;;;;;;;;;;;22.60;89.60;;;;;;5112689;28;20363;-66
2023/08/30 01:12:39;;;;;;;;;;;22.80;89.30;;;;;;5112607;28;19908;-67
2023/08/30 01:15:09;;;;;;;;;;;23.00;88.10;;;;;;5112759;28;19908;-67
2023/08/30 01:17:36;;;;;;;;;;;23.20;86.80;;;;;;5112472;28;19923;-69
2023/08/30 01:20:16;;;;;;;;;;;23.40;85.00;;;;;;5112697;28;19989;-67
2023/08/30 01:23:01;;;;;;;;;;;23.50;85.90;;;;;;5094218;28;19916;-67
2023/08/30 01:25:52;;;;;;;;;;;23.70;83.70;;;;;;5112742;28;19907;-69
2023/08/30 01:28:21;;;;;;;;;;;23.90;81.80;;;;;;5112624;28;20287;-68
2023/08/30 01:30:48;;;;;;;;;;;24.00;80.90;;;;;;5112781;28;19918;-68
2023/08/30 01:33:15;;;;;;;;;;;24.00;80.50;;;;;;5116052;28;19951;-68
2023/08/30 01:35:42;;;;;;;;;;;24.10;79.90;;;;;;5115968;28;19919;-68
2023/08/30 01:38:10;;;;;;;;;;;24.20;80.00;;;;;;5115900;28;19915;-68
2023/08/30 01:40:37;;;;;;;;;;;24.40;79.80;;;;;;5116151;28;19914;-67
2023/08/30 01:43:05;;;;;;;;;;;24.50;79.10;;;;;;5115781;28;19923;-69
2023/08/30 01:45:33;;;;;;;;;;;24.60;80.10;;;;;;5115856;28;20246;-68
2023/08/30 01:48:00;;;;;;;;;;;24.90;78.50;;;;;;5115690;28;19908;-67
2023/08/30 01:50:27;;;;;;;;;;;25.10;78.00;;;;;;5115492;28;19914;-69
2023/08/30 01:52:54;;;;;;;;;;;25.30;77.40;;;;;;5115798;28;19907;-69
2023/08/30 01:55:22;;;;;;;;;;;25.40;78.00;;;;;;5115850;28;19908;-72
2023/08/30 01:57:48;;;;;;;;;;;25.70;76.70;;;;;;5116205;28;19918;-69
2023/08/30 02:00:15;;;;;;;;;;;25.70;75.50;;;;;;5116128;28;20353;-68
2023/08/30 02:02:42;;;;;;;;;;;25.80;75.30;;;;;;5115534;28;20007;-68
2023/08/30 02:05:09;;;;;;;;;;;25.90;75.70;;;;;;5115663;28;19911;-67
2023/08/30 02:07:44;;;;;;;;;;;25.90;75.30;;;;;;5115406;28;19908;-67
2023/08/30 02:10:11;;;;;;;;;;;25.90;74.00;;;;;;5115407;28;19907;-68
2023/08/30 02:12:47;;;;;;;;;;;25.90;74.00;;;;;;5115526;28;19958;-68
2023/08/30 02:15:14;;;;;;;;;;;26.10;75.30;;;;;;5115215;28;19912;-68
2023/08/30 02:17:41;;;;;;;;;;;26.40;74.80;;;;;;5115276;28;19922;-69
2023/08/30 02:20:08;;;;;;;;;;;26.40;74.10;;;;;;5096931;28;19908;-67
2023/08/30 02:22:35;;;;;;;;;;;26.60;74.40;;;;;;5115082;28;19923;-68
2023/08/30 02:25:05;;;;;;;;;;;26.50;73.30;;;;;;5114775;28;19908;-68
2023/08/30 02:27:32;;;;;;;;;;;26.60;74.00;;;;;;5115183;28;19958;-68
2023/08/30 02:29:58;;;;;;;;;;;26.70;73.40;;;;;;5115180;28;19919;-68
2023/08/30 02:32:25;;;;;;;;;;;26.90;73.40;;;;;;5115103;28;19951;-67
2023/08/30 02:34:52;;;;;;;;;;;27.10;72.80;;;;;;5115054;28;19915;-67
2023/08/30 02:37:19;;;;;;;;;;;27.30;71.00;;;;;;5114654;28;19908;-68
2023/08/30 02:39:46;;;;;;;;;;;27.50;71.30;;;;;;5114557;28;19912;-67
2023/08/30 02:42:12;;;;;;;;;;;27.80;71.10;;;;;;5114587;28;19919;-68
2023/08/30 02:44:39;;;;;;;;;;;28.60;69.90;;;;;;5114246;28;19937;-68
2023/08/30 02:47:05;;;;;;;;;;;29.40;67.90;;;;;;5114531;28;19946;-69
2023/08/30 02:49:32;;;;;;;;;;;29.90;67.70;;;;;;5114599;28;19911;-68
2023/08/30 02:51:59;;;;;;;;;;;30.50;66.60;;;;;;5114708;28;19958;-68
2023/08/30 02:54:25;;;;;;;;;;;31.50;64.00;;;;;;5114695;28;19914;-70
2023/08/30 02:56:52;;;;;;;;;;;32.40;63.20;;;;;;5114534;28;20352;-68
2023/08/30 02:59:19;;;;;;;;;;;33.60;61.00;;;;;;5114480;28;19916;-68
2023/08/30 03:01:45;;;;;;;;;;;34.30;58.60;;;;;;5114397;28;20442;-68
2023/08/30 03:04:12;;;;;;;;;;;34.80;58.20;;;;;;5114417;28;19919;-68
2023/08/30 03:06:38;;;;;;;;;;;35.20;56.40;;;;;;5114271;28;20291;-68
2023/08/30 03:09:06;;;;;;;;;;;35.80;55.80;;;;;;5114235;28;20093;-67
2023/08/30 03:11:32;;;;;;;;;;;36.20;55.40;;;;;;5095914;28;19911;-67
2023/08/30 03:13:59;;;;;;;;;;;37.10;56.10;;;;;;5096013;28;20272;-68
2023/08/30 03:16:26;;;;;;;;;;;37.40;53.30;;;;;;5114250;28;19929;-69
2023/08/30 03:18:52;;;;;;;;;;;37.40;52.50;;;;;;5114155;28;19915;-68
2023/08/30 03:21:19;;;;;;;;;;;37.20;52.40;;;;;;5114151;28;19908;-68
2023/08/30 03:23:46;;;;;;;;;;;37.90;52.90;;;;;;5095972;28;19924;-69
2023/08/30 03:26:13;;;;;;;;;;;38.50;51.00;;;;;;5114086;28;19908;-69
2023/08/30 03:28:40;;;;;;;;;;;38.60;49.70;;;;;;5113993;28;19943;-69
2023/08/30 03:31:13;;;;;;;;;;;38.50;50.50;;;;;;5113870;28;19926;-69
2023/08/30 03:33:41;;;;;;;;;;;38.90;50.40;;;;;;5113780;28;19919;-69
2023/08/30 03:36:11;;;;;;;;;;;39.80;50.30;;;;;;5113771;28;20374;-69
2023/08/30 03:38:38;;;;;;;;;;;39.90;48.50;;;;;;5113809;28;19907;-68
2023/08/30 03:41:05;;;;;;;;;;;39.10;48.40;;;;;;5113905;28;19908;-67
2023/08/30 03:43:32;;;;;;;;;;;38.30;47.90;;;;;;5113648;28;19915;-68
2023/08/30 03:45:59;;;;;;;;;;;37.80;48.70;;;;;;5095881;28;19989;-72
2023/08/30 03:48:26;;;;;;;;;;;36.10;49.40;;;;;;5111291;28;19912;-71
2023/08/30 03:50:54;;;;;;;;;;;34.80;50.50;;;;;;5111800;28;19930;-69
2023/08/30 03:53:21;;;;;;;;;;;32.90;51.70;;;;;;5113052;28;19908;-69
2023/08/30 03:55:47;;;;;;;;;;;31.60;53.40;;;;;;5102739;28;20395;-70
2023/08/30 03:58:14;;;;;;;;;;;30.50;54.40;;;;;;5101492;28;19912;-69
2023/08/30 04:00:41;;;;;;;;;;;29.70;55.30;;;;;;5093894;28;19909;-68
2023/08/30 04:03:09;;;;;;;;;;;29.00;56.10;;;;;;5112532;28;19939;-71
2023/08/30 04:05:36;;;;;;;;;;;28.50;56.70;;;;;;5105379;28;19961;-71
2023/08/30 04:08:05;;;;;;;;;;;28.00;57.30;;;;;;5102286;28;19908;-72
2023/08/30 04:10:35;;;;;;;;;;;27.70;57.40;;;;;;5111762;28;19919;-67
2023/08/30 04:13:02;;;;;;;;;;;27.40;58.20;;;;;;5111359;28;20365;-71
2023/08/30 04:15:29;;;;;;;;;;;27.10;58.20;;;;;;5106395;28;19908;-71
2023/08/30 04:17:56;;;;;;;;;;;26.90;59.10;;;;;;5107386;28;19915;-68
2023/08/30 04:20:22;;;;;;;;;;;26.80;58.70;;;;;;5112199;28;20356;-73
2023/08/30 04:22:49;;;;;;;;;;;26.70;59.40;;;;;;5100115;28;19919;-66
2023/08/30 04:25:15;;;;;;;;;;;26.40;59.30;;;;;;5107257;28;19911;-68
2023/08/30 04:27:42;;;;;;;;;;;26.20;59.80;;;;;;5110629;28;19908;-71
2023/08/30 04:30:10;;;;;;;;;;;26.10;59.70;;;;;;5111131;28;19918;-67
2023/08/30 04:32:36;;;;;;;;;;;26.00;60.50;;;;;;5111867;28;19912;-67
2023/08/30 04:35:03;;;;;;;;;;;25.90;60.60;;;;;;5102249;28;20368;-68
2023/08/30 04:37:33;;;;;;;;;;;25.80;60.90;;;;;;5106235;28;19959;-72
2023/08/30 04:40:00;;;;;;;;;;;25.70;60.50;;;;;;5110863;28;20637;-67
2023/08/30 04:42:26;;;;;;;;;;;25.60;61.20;;;;;;5111592;28;19915;-66
2023/08/30 04:44:54;;;;;;;;;;;25.60;61.80;;;;;;5112242;28;19997;-67
2023/08/30 04:47:21;;;;;;;;;;;25.40;63.40;;;;;;5090869;28;19965;-68
2023/08/30 04:49:51;;;;;;;;;;;25.30;69.30;;;;;;5111642;28;20017;-69
2023/08/30 04:52:18;;;;;;;;;;;25.00;71.10;;;;;;5111126;28;19908;-69
2023/08/30 04:54:45;;;;;;;;;;;24.80;72.70;;;;;;5112453;28;19908;-67
2023/08/30 04:57:16;;;;;;;;;;;24.60;73.80;;;;;;5091730;28;19998;-70
2023/08/30 04:59:43;;;;;;;;;;;24.30;75.30;;;;;;5099666;28;20368;-71
2023/08/30 05:02:10;;;;;;;;;;;24.20;76.40;;;;;;5110526;28;19916;-66
2023/08/30 05:04:36;;;;;;;;;;;23.90;77.00;;;;;;5112316;28;19951;-69
2023/08/30 05:07:03;;;;;;;;;;;23.80;77.70;;;;;;5111667;28;20379;-71
2023/08/30 05:09:34;;;;;;;;;;;23.70;77.80;;;;;;5115304;28;20271;-65
2023/08/30 05:12:00;;;;;;;;;;;23.60;78.40;;;;;;5114866;28;19916;-69
2023/08/30 05:14:27;;;;;;;;;;;23.50;78.70;;;;;;5104216;28;19923;-68
2023/08/30 05:16:54;;;;;;;;;;;23.40;78.10;;;;;;5112503;28;19908;-67
2023/08/30 05:19:21;;;;;;;;;;;23.30;77.40;;;;;;5115329;28;19952;-71
2023/08/30 05:21:51;;;;;;;;;;;23.20;77.90;;;;;;5114267;28;19941;-68
2023/08/30 05:24:19;;;;;;;;;;;23.10;79.40;;;;;;5105699;28;19931;-69
2023/08/30 05:26:46;;;;;;;;;;;23.00;81.70;;;;;;5106153;28;19925;-70
2023/08/30 05:29:14;;;;;;;;;;;22.90;85.00;;;;;;5113162;28;20008;-68
2023/08/30 05:31:40;;;;;;;;;;;22.70;84.00;;;;;;5105783;28;19943;-73
2023/08/30 05:34:07;;;;;;;;;;;22.50;89.70;;;;;;5115064;28;19918;-68
2023/08/30 05:36:33;;;;;;;;;;;22.30;91.30;;;;;;5109401;27;19927;-67
2023/08/30 05:39:00;;;;;;;;;;;22.20;93.00;;;;;;5105494;28;19955;-65
2023/08/30 05:41:27;;;;;;;;;;;22.10;94.10;;;;;;5113272;28;19912;-66
2023/08/30 05:43:54;;;;;;;;;;;21.80;94.30;;;;;;5113674;28;19928;-71
2023/08/30 05:46:20;;;;;;;;;;;21.70;95.30;;;;;;5102047;28;20281;-68
2023/08/30 05:48:47;;;;;;;;;;;21.60;95.60;;;;;;5114335;28;19919;-73
2023/08/30 05:51:14;;;;;;;;;;;21.50;96.10;;;;;;5096649;28;19950;-68
2023/08/30 05:53:40;;;;;;;;;;;21.50;96.50;;;;;;5106908;27;20365;-70
2023/08/30 05:56:07;;;;;;;;;;;21.50;96.50;;;;;;5092220;28;19913;-70
2023/08/30 05:58:35;;;;;;;;;;;21.40;97.60;;;;;;5109719;28;19965;-73
2023/08/30 06:01:03;;;;;;;;;;;21.40;99.90;;;;;;5101682;28;19908;-67
2023/08/30 06:03:29;;;;;;;;;;;21.30;99.90;;;;;;5109621;27;20280;-72
2023/08/30 06:05:56;;;;;;;;;;;21.10;99.90;;;;;;5106620;28;19923;-65
2023/08/30 06:08:22;;;;;;;;;;;20.70;99.60;;;;;;5109954;27;19922;-69
2023/08/30 06:10:49;;;;;;;;;;;20.30;96.70;;;;;;5099688;28;19955;-72
2023/08/30 06:13:16;;;;;;;;;;;20.00;96.30;;;;;;5108540;27;19912;-67
2023/08/30 06:15:44;;;;;;;;;;;20.00;97.10;;;;;;5106432;28;20277;-72
2023/08/30 06:18:11;;;;;;;;;;;19.90;98.90;;;;;;5107026;27;19915;-71
2023/08/30 06:20:41;;;;;;;;;;;19.40;99.90;;;;;;5105658;28;19951;-66
2023/08/30 06:23:07;;;;;;;;;;;19.00;99.90;;;;;;5113951;28;19916;-78
2023/08/30 06:25:34;;;;;;;;;;;18.50;99.90;;;;;;5111095;28;19912;-69
2023/08/30 06:28:03;;;;;;;;;;;18.20;99.90;;;;;;5111311;27;19935;-75
2023/08/30 06:30:30;;;;;;;;;;;17.70;99.90;;;;;;5101948;28;19999;-66
2023/08/30 06:32:57;;;;;;;;;;;17.40;99.90;;;;;;5112088;27;20018;-68
2023/08/30 06:35:24;;;;;;;;;;;17.20;99.90;;;;;;5111292;28;19920;-69
2023/08/30 06:37:50;;;;;;;;;;;17.10;99.90;;;;;;5109603;27;19988;-69
2023/08/30 06:40:17;;;;;;;;;;;16.90;99.90;;;;;;5108262;28;19995;-65
2023/08/30 06:42:43;;;;;;;;;;;16.80;99.90;;;;;;5095061;28;19916;-73
2023/08/30 06:45:11;;;;;;;;;;;16.70;99.90;;;;;;5104828;28;19920;-74
2023/08/30 06:47:38;;;;;;;;;;;16.70;99.90;;;;;;5104236;28;19920;-75
2023/08/30 06:50:05;;;;;;;;;;;16.60;99.90;;;;;;5106123;28;19919;-72
2023/08/30 06:52:31;;;;;;;;;;;16.50;99.90;;;;;;5111778;28;19958;-73
2023/08/30 06:54:58;;;;;;;;;;;16.50;99.90;;;;;;5083254;28;19912;-72
2023/08/30 06:57:24;;;;;;;;;;;16.50;99.90;;;;;;5098289;28;19919;-73
2023/08/30 06:59:51;;;;;;;;;;;16.50;99.90;;;;;;5109839;28;19935;-74
2023/08/30 07:02:18;;;;;;;;;;;16.30;99.90;;;;;;5104749;28;19926;-74
2023/08/30 07:04:44;;;;;;;;;;;16.30;99.90;;;;;;5090141;28;19922;-72
2023/08/30 07:07:12;;;;;;;;;;;16.30;99.90;;;;;;5111911;28;20006;-73
2023/08/30 07:09:40;;;;;;;;;;;16.30;99.90;;;;;;5112455;28;19999;-70
2023/08/30 07:12:06;;;;;;;;;;;16.30;99.90;;;;;;5110279;27;19927;-74
2023/08/30 07:14:33;;;;;;;;;;;16.30;99.90;;;;;;5109172;28;19957;-72
2023/08/30 07:17:00;;;;;;;;;;;16.40;99.90;;;;;;5082154;28;19919;-74
2023/08/30 07:19:27;;;;;;;;;;;16.30;99.90;;;;;;5097323;28;19919;-73
2023/08/30 07:21:53;;;;;;;;;;;16.20;99.90;;;;;;5109788;28;19919;-70
2023/08/30 07:24:22;;;;;;;;;;;16.20;99.90;;;;;;5098528;28;19962;-73
2023/08/30 07:26:49;;;;;;;;;;;16.10;99.90;;;;;;5101789;28;19912;-73
2023/08/30 07:29:16;;;;;;;;;;;16.10;99.90;;;;;;5095501;28;19909;-72
2023/08/30 07:31:42;;;;;;;;;;;16.00;99.90;;;;;;5070306;28;19915;-72
2023/08/30 07:34:09;;;;;;;;;;;16.00;99.90;;;;;;5097772;28;19916;-72
2023/08/30 07:36:36;;;;;;;;;;;16.00;99.90;;;;;;5099344;28;19916;-67
2023/08/30 07:39:03;;;;;;;;;;;16.00;99.90;;;;;;5094802;28;20268;-68
2023/08/30 07:41:30;;;;;;;;;;;16.00;99.90;;;;;;5103635;28;19951;-70
2023/08/30 07:43:56;;;;;;;;;;;16.00;99.90;;;;;;5103401;28;19953;-74
2023/08/30 07:46:24;;;;;;;;;;;15.90;99.90;;;;;;5095403;27;19928;-73
2023/08/30 07:48:50;;;;;;;;;;;15.80;99.90;;;;;;5099447;28;19944;-71
2023/08/30 07:51:17;;;;;;;;;;;15.80;99.90;;;;;;5091769;28;19916;-67
2023/08/30 07:53:44;;;;;;;;;;;15.80;99.90;;;;;;5096557;28;19919;-71
2023/08/30 07:56:10;;;;;;;;;;;15.80;99.90;;;;;;5101833;28;19912;-73
2023/08/30 07:58:37;;;;;;;;;;;15.80;99.90;;;;;;5099646;27;19918;-67
2023/08/30 08:01:03;;;;;;;;;;;15.70;99.90;;;;;;5091619;28;19948;-72
2023/08/30 08:03:30;;;;;;;;;;;15.70;99.90;;;;;;5103940;28;20092;-74
2023/08/30 08:05:58;;;;;;;;;;;15.60;99.90;;;;;;5100742;28;19969;-69
2023/08/30 08:08:25;;;;;;;;;;;15.70;99.90;;;;;;5108112;28;19923;-70
2023/08/30 08:10:52;;;;;;;;;;;15.70;99.90;;;;;;5094594;28;19931;-71
2023/08/30 08:13:18;;;;;;;;;;;15.70;99.90;;;;;;5095131;28;20008;-65
2023/08/30 08:15:45;;;;;;;;;;;15.80;99.90;;;;;;5090930;28;19919;-66
2023/08/30 08:18:11;;;;;;;;;;;15.80;99.90;;;;;;5101807;28;20317;-67
2023/08/30 08:20:39;;;;;;;;;;;15.90;99.90;;;;;;5091189;28;19916;-72
2023/08/30 08:23:05;;;;;;;;;;;16.00;99.90;;;;;;5094998;28;20011;-71
2023/08/30 08:25:32;;;;;;;;;;;15.90;99.90;;;;;;5109029;28;19915;-73
2023/08/30 08:27:59;;;;;;;;;;;15.90;99.90;;;;;;5102076;28;20003;-78
2023/08/30 08:30:25;;;;;;;;;;;15.90;99.90;;;;;;5091139;28;19916;-67
2023/08/30 08:32:52;;;;;;;;;;;15.90;99.90;;;;;;5092533;28;19912;-74
2023/08/30 08:35:19;;;;;;;;;;;15.80;99.90;;;;;;5097035;28;20473;-74
2023/08/30 08:37:46;;;;;;;;;;;15.80;99.90;;;;;;5106698;28;19912;-76
2023/08/30 08:40:13;;;;;;;;;;;15.80;99.90;;;;;;5093432;28;19919;-76
2023/08/30 08:42:40;;;;;;;;;;;15.80;99.90;;;;;;5107104;28;19920;-73
2023/08/30 08:45:07;;;;;;;;;;;15.80;99.90;;;;;;5116796;28;19923;-70
2023/08/30 08:47:34;;;;;;;;;;;15.80;99.90;;;;;;5116172;28;19912;-75
2023/08/30 08:50:03;;;;;;;;;;;15.90;99.90;;;;;;5117019;28;20383;-77
2023/08/30 08:52:30;;;;;;;;;;;15.80;99.90;;;;;;5109239;28;20381;-66
2023/08/30 08:54:57;;;;;;;;;;;15.80;99.90;;;;;;5096511;28;19908;-67
2023/08/30 08:57:24;;;;;;;;;;;15.70;99.90;;;;;;5096200;28;19908;-64
2023/08/30 08:59:50;;;;;;;;;;;15.70;99.90;;;;;;5112638;28;20394;-66
2023/08/30 09:02:18;;;;;;;;;;;15.70;99.90;;;;;;5113595;28;20276;-67
2023/08/30 09:04:45;;;;;;;;;;;15.70;99.90;;;;;;5112299;28;19918;-66
2023/08/30 09:07:11;;;;;;;;;;;15.80;99.90;;;;;;5104378;28;19980;-66
2023/08/30 09:09:38;;;;;;;;;;;15.60;99.90;;;;;;5094812;28;19915;-65
2023/08/30 09:12:05;;;;;;;;;;;15.60;99.90;;;;;;5100136;28;20367;-68
2023/08/30 09:14:31;;;;;;;;;;;15.60;99.90;;;;;;5114410;28;19915;-66
2023/08/30 09:17:02;;;;;;;;;;;15.50;99.90;;;;;;5104857;28;19934;-66
2023/08/30 09:19:30;;;;;;;;;;;15.50;99.90;;;;;;5100121;28;19908;-66
2023/08/30 09:21:59;;;;;;;;;;;15.50;99.90;;;;;;5098064;27;20249;-70
2023/08/30 09:24:26;;;;;;;;;;;15.40;99.90;;;;;;5095505;28;19916;-68
2023/08/30 09:26:54;;;;;;;;;;;15.50;99.90;;;;;;5100794;28;19915;-72
2023/08/30 09:29:21;;;;;;;;;;;15.30;99.90;;;;;;5097808;28;20364;-66
2023/08/30 09:31:51;;;;;;;;;;;15.30;99.90;;;;;;5095654;27;19908;-68
2023/08/30 09:34:18;;;;;;;;;;;15.20;99.90;;;;;;5111436;28;20003;-68
2023/08/30 09:36:46;;;;;;;;;;;15.20;99.90;;;;;;5082399;28;19963;-64
2023/08/30 09:39:14;;;;;;;;;;;15.10;99.90;;;;;;5094787;28;20331;-69
2023/08/30 09:41:50;;;;;;;;;;;15.00;99.90;;;;;;5079498;28;19915;-67
2023/08/30 09:44:18;;;;;;;;;;;15.00;99.90;;;;;;5101375;28;19927;-64
2023/08/30 09:46:49;;;;;;;;;;;15.00;99.90;;;;;;5103148;28;19973;-68
2023/08/30 09:49:18;;;;;;;;;;;14.90;99.90;;;;;;5094826;28;19909;-64
2023/08/30 09:51:46;;;;;;;;;;;15.00;99.90;;;;;;5099143;28;19958;-67
2023/08/30 09:54:17;;;;;;;;;;;15.00;99.90;;;;;;5095907;28;20011;-66
2023/08/30 09:56:45;;;;;;;;;;;15.00;99.90;;;;;;5099927;28;19958;-66
2023/08/30 09:59:12;;;;;;;;;;;14.90;99.90;;;;;;5102408;28;19962;-66
2023/08/30 10:01:40;;;;;;;;;;;15.00;99.90;;;;;;5101248;28;19919;-68
2023/08/30 10:04:10;;;;;;;;;;;14.90;99.90;;;;;;5094071;28;19916;-66
2023/08/30 10:06:40;;;;;;;;;;;15.00;99.90;;;;;;5100178;28;19913;-68
2023/08/30 10:09:10;;;;;;;;;;;15.00;99.90;;;;;;5094384;28;19912;-72
2023/08/30 10:11:38;;;;;;;;;;;15.00;99.90;;;;;;5095031;27;19916;-66
2023/08/30 10:14:05;;;;;;;;;;;14.90;99.90;;;;;;5107024;28;19923;-72
2023/08/30 10:16:43;;;;;;;;;;;14.90;99.90;;;;;;5099813;27;19973;-73
2023/08/30 10:19:15;;;;;;;;;;;15.00;99.90;;;;;;5094050;28;20357;-72
2023/08/30 10:21:47;;;;;;;;;;;15.10;99.90;;;;;;5094754;27;19916;-72
2023/08/30 10:24:16;;;;;;;;;;;15.10;99.90;;;;;;5093605;28;19973;-70
2023/08/30 10:26:44;;;;;;;;;;;15.00;99.90;;;;;;5101066;27;19912;-71
2023/08/30 10:29:13;;;;;;;;;;;15.10;99.90;;;;;;5093964;28;19908;-74
2023/08/30 10:31:40;;;;;;;;;;;15.00;99.90;;;;;;5094510;27;19991;-71
2023/08/30 10:34:16;;;;;;;;;;;15.00;99.90;;;;;;5093787;28;19912;-65
2023/08/30 10:36:44;;;;;;;;;;;15.00;99.90;;;;;;5099478;28;19973;-65
2023/08/30 10:39:14;;;;;;;;;;;15.10;99.90;;;;;;5106231;28;19908;-67
2023/08/30 10:41:57;;;;;;;;;;;14.90;99.90;;;;;;5093283;28;19958;-67
2023/08/30 10:44:24;;;;;;;;;;;14.90;99.90;;;;;;5093096;28;19923;-66
2023/08/30 10:46:54;;;;;;;;;;;15.00;99.90;;;;;;5105641;28;19920;-66
2023/08/30 10:49:22;;;;;;;;;;;14.90;99.90;;;;;;5113118;28;19912;-68
2023/08/30 10:51:58;;;;;;;;;;;15.00;99.90;;;;;;5108852;28;19911;-69
2023/08/30 10:54:25;;;;;;;;;;;15.00;99.90;;;;;;5109661;28;19975;-67
2023/08/30 10:56:51;;;;;;;;;;;15.00;99.90;;;;;;5112389;28;20609;-68
2023/08/30 10:59:19;;;;;;;;;;;15.00;99.90;;;;;;5112893;28;19914;-67
2023/08/30 11:01:46;;;;;;;;;;;15.00;99.90;;;;;;5109553;28;19919;-66
2023/08/30 11:04:14;;;;;;;;;;;14.80;99.90;;;;;;5112617;28;19928;-66
2023/08/30 11:06:43;;;;;;;;;;;14.80;99.90;;;;;;5112711;28;20360;-66
2023/08/30 11:09:10;;;;;;;;;;;14.90;99.90;;;;;;5112648;28;19916;-66
2023/08/30 11:11:37;;;;;;;;;;;14.80;99.90;;;;;;5112718;28;19923;-70
2023/08/30 11:14:05;;;;;;;;;;;14.80;99.90;;;;;;5094102;28;19961;-69
2023/08/30 11:16:34;;;;;;;;;;;14.80;99.90;;;;;;5110890;28;19915;-68
2023/08/30 11:19:03;;;;;;;;;;;14.90;99.90;;;;;;5113273;28;19908;-66
2023/08/30 11:21:33;;;;;;;;;;;14.90;99.90;;;;;;5100984;28;19953;-67
2023/08/30 11:24:00;;;;;;;;;;;14.80;99.90;;;;;;5112672;28;19949;-68
2023/08/30 11:26:26;;;;;;;;;;;14.80;99.90;;;;;;5113008;28;19958;-66
2023/08/30 11:28:53;;;;;;;;;;;14.80;99.90;;;;;;5112872;28;19934;-68
2023/08/30 11:31:22;;;;;;;;;;;14.70;99.90;;;;;;5112776;28;19954;-68
2023/08/30 11:33:52;;;;;;;;;;;14.70;99.90;;;;;;5112955;28;19914;-66
2023/08/30 11:36:21;;;;;;;;;;;14.70;99.90;;;;;;5111684;28;20280;-67
2023/08/30 11:38:51;;;;;;;;;;;14.70;99.90;;;;;;5103325;28;19912;-68
2023/08/30 11:41:17;;;;;;;;;;;14.70;99.90;;;;;;5102429;28;19985;-69
2023/08/30 11:43:45;;;;;;;;;;;14.70;99.90;;;;;;5112609;28;19919;-67
2023/08/30 11:46:12;;;;;;;;;;;14.80;99.90;;;;;;5111744;28;20449;-65
2023/08/30 11:48:40;;;;;;;;;;;14.80;99.90;;;;;;5112245;28;19908;-65
2023/08/30 11:51:07;;;;;;;;;;;14.70;99.90;;;;;;5112591;28;19920;-64
2023/08/30 11:53:34;;;;;;;;;;;14.80;99.90;;;;;;5112611;28;19911;-64
2023/08/30 11:56:01;;;;;;;;;;;14.80;99.90;;;;;;5112659;28;20049;-66
2023/08/30 11:58:28;;;;;;;;;;;14.80;99.90;;;;;;5112514;28;19907;-65
2023/08/30 12:00:54;;;;;;;;;;;14.80;99.90;;;;;;5112542;28;20407;-66
2023/08/30 12:03:21;;;;;;;;;;;14.80;99.90;;;;;;5110995;28;19920;-68
2023/08/30 12:05:48;;;;;;;;;;;14.80;99.90;;;;;;5109703;28;19957;-66
2023/08/30 12:08:19;;;;;;;;;;;14.70;99.90;;;;;;5092939;28;20049;-67
2023/08/30 12:10:46;;;;;;;;;;;14.80;99.90;;;;;;5109555;28;19912;-66
2023/08/30 12:13:22;;;;;;;;;;;14.80;99.90;;;;;;5110655;28;20018;-69
2023/08/30 12:15:49;;;;;;;;;;;14.80;99.90;;;;;;5104286;28;19957;-67
2023/08/30 12:18:16;;;;;;;;;;;14.80;99.90;;;;;;5109828;28;19911;-69
2023/08/30 12:20:53;;;;;;;;;;;14.80;99.90;;;;;;5104249;28;19912;-71
2023/08/30 12:23:20;;;;;;;;;;;15.00;99.90;;;;;;5097210;28;20352;-66
2023/08/30 12:25:57;;;;;;;;;;;14.90;99.90;;;;;;5096163;28;19916;-69
2023/08/30 12:28:24;;;;;;;;;;;14.90;99.90;;;;;;5074188;28;20293;-66
2023/08/30 12:30:50;;;;;;;;;;;14.90;99.90;;;;;;5092424;28;20368;-66
2023/08/30 12:33:18;;;;;;;;;;;14.90;99.90;;;;;;5092726;28;20349;-68
2023/08/30 12:35:45;;;;;;;;;;;14.90;99.90;;;;;;5092166;28;19915;-66
2023/08/30 12:38:17;;;;;;;;;;;15.00;99.90;;;;;;5092445;28;19909;-68
2023/08/30 12:40:45;;;;;;;;;;;15.00;99.90;;;;;;5092303;28;19908;-67
2023/08/30 12:43:12;;;;;;;;;;;15.00;99.90;;;;;;5092349;28;20000;-66
2023/08/30 12:45:40;;;;;;;;;;;15.00;99.90;;;;;;5092360;28;19924;-67
2023/08/30 12:48:11;;;;;;;;;;;14.90;99.90;;;;;;5093370;28;20037;-67
2023/08/30 12:50:38;;;;;;;;;;;14.90;99.90;;;;;;5092323;28;19916;-67
2023/08/30 12:53:05;;;;;;;;;;;14.90;99.90;;;;;;5092457;28;19908;-67
2023/08/30 12:55:32;;;;;;;;;;;14.90;99.90;;;;;;5092184;28;20368;-69
2023/08/30 12:57:59;;;;;;;;;;;14.90;99.90;;;;;;5092301;28;19908;-66
2023/08/30 13:00:25;;;;;;;;;;;14.90;99.90;;;;;;5105773;28;20365;-70
2023/08/30 13:02:52;;;;;;;;;;;14.90;99.90;;;;;;5112116;28;19919;-67
2023/08/30 13:05:19;;;;;;;;;;;14.80;99.90;;;;;;5112879;28;19914;-67
2023/08/30 13:07:45;;;;;;;;;;;14.80;99.90;;;;;;5112778;28;19929;-68
2023/08/30 13:10:12;;;;;;;;;;;14.80;99.90;;;;;;5112494;28;19915;-66
2023/08/30 13:12:39;;;;;;;;;;;14.80;99.90;;;;;;5112003;28;19915;-66
2023/08/30 13:15:06;;;;;;;;;;;14.70;99.90;;;;;;5112196;28;19998;-67
2023/08/30 13:17:33;;;;;;;;;;;14.70;99.90;;;;;;5112415;28;19915;-67
2023/08/30 13:20:00;;;;;;;;;;;14.70;99.90;;;;;;5112576;28;19911;-68
2023/08/30 13:22:26;;;;;;;;;;;14.70;99.90;;;;;;5109710;28;20279;-67
2023/08/30 13:24:53;;;;;;;;;;;14.60;99.90;;;;;;5111909;28;19916;-67
2023/08/30 13:27:20;;;;;;;;;;;14.60;99.90;;;;;;5113128;28;19939;-67
2023/08/30 13:29:46;;;;;;;;;;;14.50;99.90;;;;;;5103661;28;19919;-67
2023/08/30 13:32:13;;;;;;;;;;;14.50;99.90;;;;;;5095809;28;19908;-66
2023/08/30 13:34:40;;;;;;;;;;;14.50;99.90;;;;;;5095512;28;19916;-67
2023/08/30 13:37:06;;;;;;;;;;;14.40;99.90;;;;;;5095837;28;19908;-66
2023/08/30 13:39:33;;;;;;;;;;;14.40;99.90;;;;;;5095671;28;19908;-67
2023/08/30 13:42:00;;;;;;;;;;;14.30;99.90;;;;;;5096085;28;19974;-69
2023/08/30 13:44:26;;;;;;;;;;;14.20;99.90;;;;;;5115723;28;19942;-67
2023/08/30 13:46:53;;;;;;;;;;;14.30;99.90;;;;;;5115488;28;19972;-66
2023/08/30 13:49:20;;;;;;;;;;;14.10;99.90;;;;;;5116315;28;19908;-67
2023/08/30 13:51:46;;;;;;;;;;;13.90;99.90;;;;;;5115726;28;20427;-67
2023/08/30 13:54:13;;;;;;;;;;;13.90;99.90;;;;;;5115864;28;19912;-66
2023/08/30 13:56:41;;;;;;;;;;;13.90;99.90;;;;;;5115331;28;19923;-67
2023/08/30 13:59:08;;;;;;;;;;;13.90;99.90;;;;;;5115672;28;19912;-68
2023/08/30 14:01:37;;;;;;;;;;;13.80;99.90;;;;;;5115520;28;19911;-67
2023/08/30 14:04:04;;;;;;;;;;;13.80;99.90;;;;;;5115365;28;20025;-67
2023/08/30 14:06:32;;;;;;;;;;;13.80;99.90;;;;;;5109784;28;19912;-67
2023/08/30 14:08:59;;;;;;;;;;;13.80;99.90;;;;;;5106672;28;19964;-67
2023/08/30 14:11:25;;;;;;;;;;;13.80;99.90;;;;;;5096070;28;19919;-67
2023/08/30 14:13:52;;;;;;;;;;;13.80;99.90;;;;;;5095020;28;19915;-68
2023/08/30 14:16:18;;;;;;;;;;;13.80;99.90;;;;;;5094610;28;20273;-67
2023/08/30 14:18:45;;;;;;;;;;;13.80;99.90;;;;;;5094941;28;19920;-67